Startpagina
METAR-TAF:

METAR-TAF

Vliegvelden :

Soldotna, Alaska, Verenigde Staten

breedte: 60-29N, lengte: 151-02W, hoogte: 33 m

Actueel weer

Dit bericht is 56 minuten geleden gemaakt, om 17:56 UTC
Weinig wind
Temperatuur -31°C
Vochtigheid 82%
Druk 994 hPa
Zicht: 16.1 km
Onbewolkt

METAR: PASX 261756Z AUTO 00000KT 10SM CLR M31/M33 A2936 RMK AO2 SLP952 T13061333 11261 21317 57002 FZRANO

Tijdstip: 09:52 (18:52 UTC)


TAF: ontbreekt

Waarnemingen en weersverwachtingen van meer dan 4000 vliegvelden (METAR en TAF).

De beschikbare stations zijn de gele en rode punten op de kaart.

Ga met uw muis naar het station om de naam te zien.

Klik dan om waarnemingen en weersverwachtingen te zien.

kaart wijzigen: klik op de groene knoppen met een zwart kruis om in te zoomen, op de groene knop met een streepje om uit te zoomen of op de groene pijlen voor aangrenzende kaarten.


METAR-TAF: